16 de agosto de 2022

Hora Código Clima Temp. Visibilidade Tecto Vento METAR/SPECI
14:30
V
24 °C 10 km+ - 320° 320° 3 kt METAR LFBE 161230Z AUTO 32003KT 280V360 9999 ///CB 24/18 Q1007 TEMPO VRB15G25KT 2000 TSRA BECMG NSC
14:00
V
23 °C 10 km+ 10.000 ft Var Var 3 kt METAR LFBE 161200Z AUTO VRB03KT 9999 FEW028/// BKN100/// BKN190/// ///CB 23/19 Q1007 TEMPO VRB15G25KT 2000 TSRA
13:30
V
22 °C 10 km+ 8.800 ft 310° 310° 3 kt METAR LFBE 161130Z AUTO 31003KT 9999 -RA FEW038/// SCT058/// BKN088/// ///CB 22/18 Q1007 TEMPO VRB15G25KT 2000 TSRA
13:00
V
22 °C 10 km+ - Var Var 3 kt METAR LFBE 161100Z AUTO VRB03KT 9999 ///TCU 22/17 Q1007 TEMPO VRB15G25KT 2000 TSRA BKN050CB
12:30
V
22 °C 10 km+ - 320° 320° 3 kt METAR LFBE 161030Z AUTO 32003KT 250V030 CAVOK 22/18 Q1007 TEMPO VRB15G25KT 2000 TSRA BKN050CB
12:00
V
20 °C 10 km+ - 300° 300° 5 kt METAR LFBE 161000Z AUTO 30005KT 250V360 CAVOK 20/18 Q1007 TEMPO VRB15G25KT 2000 TSRA BKN050CB
11:30
V
19 °C 10 km+ 6.400 ft 010° 010° 3 kt METAR LFBE 160930Z AUTO 01003KT 330V060 9999 -RA FEW040/// SCT052/// BKN064/// ///TCU 19/18 Q1007 TEMPO VRB15G25KT 2000 TSRA BKN050CB
11:00
V
18 °C 8 km 10.000 ft Var Var 3 kt METAR LFBE 160900Z AUTO VRB03KT 8000 -RA FEW029/// BKN100/// OVC120/// ///TCU 18/17 Q1008 TEMPO VRB15G25KT 2000 TSRA BKN050CB
10:30
V
18 °C 10 km+ - 360° 360° 3 kt METAR LFBE 160830Z AUTO 36003KT 280V080 9999 -RA VCTS ///CB 18/17 Q1007 TEMPO VRB15G25KT 2000 TSRA
10:00
V
18 °C 10 km+ 10.000 ft 330° 330° 5 kt METAR LFBE 160800Z AUTO 33005KT 280V080 9999 FEW031/// SCT056/// BKN100/// ///CB 18/17 Q1007 TEMPO 4000 -SHRA
09:30
V
18 °C 10 km+ 10.000 ft 100° 100° 4 kt METAR LFBE 160730Z AUTO 10004KT 050V150 9999 FEW040/// OVC100/// ///CB 18/17 Q1006 TEMPO 4000 -SHRA
09:00
V
17 °C 10 km+ - 330° 330° 6 kt METAR LFBE 160700Z AUTO 33006KT 270V060 9999 VCTS ///CB 17/17 Q1007 TEMPO 4000 -SHRA NSC
08:30
V
17 °C 10 km+ 10.000 ft Var Var 2 kt METAR LFBE 160630Z AUTO VRB02KT 9999 FEW042/// BKN100/// OVC120/// ///CB 17/16 Q1006 TEMPO 4000 -SHRA NSC
08:00
M
16 °C 7 km - 080° 080° 4 kt METAR LFBE 160600Z AUTO 08004KT 7000 ///CB 16/16 Q1007 BECMG NSC
07:30
V
16 °C 8 km - Var Var 2 kt METAR LFBE 160530Z AUTO VRB02KT 8000 NSC 16/16 Q1007 NOSIG
07:00
M
16 °C 7 km - 070° 070° 4 kt METAR LFBE 160500Z AUTO 07004KT 020V090 7000 NSC 16/16 Q1006 BECMG 29010KT
06:30
M
16 °C 7 km - 030° 030° 3 kt METAR LFBE 160430Z AUTO 03003KT 7000 NSC 16/15 Q1007 BECMG 29010KT
06:00
M
15 °C 6 km - Var Var 2 kt METAR LFBE 160400Z AUTO VRB02KT 6000 NSC 15/15 Q1007 TEMPO 3000 BR
05:30
M
15 °C 5 km - 090° 090° 3 kt METAR LFBE 160330Z AUTO 09003KT 5000 BR NSC 15/15 Q1007 BECMG 29010KT
05:00
I
15 °C 4,9 km - Var Var 2 kt METAR LFBE 160300Z AUTO VRB02KT 4900 BR NSC 15/15 Q1008 BECMG 9999 NSW
04:30
M
15 °C 5 km - 060° 060° 3 kt METAR LFBE 160230Z AUTO 06003KT 5000 BR NSC 15/14 Q1008 NOSIG
04:00
M
15 °C 5 km - 060° 060° 3 kt METAR LFBE 160200Z AUTO 06003KT 5000 BR NSC 15/14 Q1008 NOSIG
03:30
M
15 °C 5 km - Var Var 2 kt METAR LFBE 160130Z AUTO VRB02KT 5000 BR NSC 15/15 Q1008 NOSIG
03:00
M
15 °C 5 km - 060° 060° 2 kt METAR LFBE 160100Z AUTO 06002KT 5000 BR NSC 15/15 Q1009 NOSIG
02:30
M
16 °C 6 km - 060° 060° 2 kt METAR LFBE 160030Z AUTO 06002KT 6000 NSC 16/15 Q1009 NOSIG
02:00
M
16 °C 6 km - 070° 070° 3 kt METAR LFBE 160000Z AUTO 07003KT 6000 NSC 16/15 Q1009 NOSIG
01:30
V
16 °C 9 km - 060° 060° 2 kt METAR LFBE 152330Z AUTO 06002KT 9000 NSC 16/15 Q1009 NOSIG
01:00
V
17 °C 10 km+ - Var 000° 0 kt METAR LFBE 152300Z AUTO 00000KT CAVOK 17/15 Q1009
00:30
V
17 °C 10 km+ - Var Var 1 kt METAR LFBE 152230Z AUTO VRB01KT CAVOK 17/15 Q1009
00:00
V
18 °C 10 km+ - Var Var 2 kt METAR LFBE 152200Z AUTO VRB02KT CAVOK 18/15 Q1009

15 de agosto de 2022

Hora Código Clima Temp. Visibilidade Tecto Vento METAR/SPECI
23:30
V
19 °C 10 km+ - 250° 250° 3 kt METAR LFBE 152130Z AUTO 25003KT CAVOK 19/15 Q1009
23:00
V
20 °C 10 km+ - 240° 240° 2 kt METAR LFBE 152100Z AUTO 24002KT CAVOK 20/16 Q1009
22:30
V
21 °C 10 km+ - 260° 260° 4 kt METAR LFBE 152030Z AUTO 26004KT CAVOK 21/16 Q1009
22:00
V
21 °C 10 km+ - 270° 270° 3 kt METAR LFBE 152000Z AUTO 27003KT CAVOK 21/15 Q1009 NOSIG
21:30
V
23 °C 10 km+ - 280° 280° 6 kt METAR LFBE 151930Z AUTO 28006KT CAVOK 23/15 Q1009 NOSIG
21:00
V
24 °C 10 km+ - 280° 280° 8 kt METAR LFBE 151900Z AUTO 28008KT CAVOK 24/15 Q1008 NOSIG
20:30
V
26 °C 10 km+ - 280° 280° 5 kt METAR LFBE 151830Z AUTO 28005KT CAVOK 26/15 Q1008 NOSIG
20:00
V
27 °C 10 km+ - Var Var 3 kt METAR LFBE 151800Z AUTO VRB03KT CAVOK 27/14 Q1008 NOSIG
19:30
V
27 °C 10 km+ - Var Var 2 kt METAR LFBE 151730Z AUTO VRB02KT CAVOK 27/15 Q1008 NOSIG
19:00
V
27 °C 10 km+ - 270° 270° 7 kt METAR LFBE 151700Z AUTO 27007KT CAVOK 27/15 Q1008 NOSIG
18:30
V
28 °C 10 km+ - Var Var 6 kt METAR LFBE 151630Z AUTO VRB06KT CAVOK 28/15 Q1008 NOSIG
18:00
V
27 °C 10 km+ - 230° 230° 4 kt METAR LFBE 151600Z AUTO 23004KT 190V270 CAVOK 27/15 Q1008 NOSIG
17:30
V
28 °C 10 km+ 8.000 ft 280° 280° 5 kt METAR LFBE 151530Z AUTO 28005KT 220V310 9999 FEW048 SCT062 BKN080 28/16 Q1008 NOSIG
17:00
V
28 °C 10 km+ 4.800 ft 280° 280° 9 kt METAR LFBE 151500Z AUTO 28009KT 210V360 9999 BKN048 BKN082 28/15 Q1009 NOSIG
16:30
V
27 °C 10 km+ - 270° 270° 8 kt METAR LFBE 151430Z AUTO 27008KT 240V350 CAVOK 27/15 Q1009 NOSIG
16:00
V
26 °C 10 km+ - 270° 270° 10 kt METAR LFBE 151400Z AUTO 27010KT 240V300 CAVOK 26/16 Q1009 NOSIG
15:30
V
26 °C 10 km+ 7.800 ft 260° 260° 10 kt METAR LFBE 151330Z AUTO 26010KT 220V290 9999 FEW046 BKN078 26/15 Q1009 NOSIG
15:00
V
27 °C 10 km+ - 240° 240° 7 kt METAR LFBE 151300Z AUTO 24007KT 210V270 CAVOK 27/15 Q1009 NOSIG
14:30
V
26 °C 10 km+ 6.200 ft 260° 260° 9 kt METAR LFBE 151230Z AUTO 26009KT 220V280 9999 FEW045 BKN062 26/15 Q1009 NOSIG
14:00
V
26 °C 10 km+ - 260° 260° 7 kt METAR LFBE 151200Z AUTO 26007KT 210V320 CAVOK 26/16 Q1010 NOSIG
13:30
V
25 °C 10 km+ 3.400 ft 290° 290° 6 kt METAR LFBE 151130Z AUTO 29006KT 260V320 9999 BKN034 OVC068 25/17 Q1010 NOSIG
13:00
V
25 °C 10 km+ 6.600 ft 250° 250° 9 kt METAR LFBE 151100Z AUTO 25009KT 230V290 9999 FEW036 SCT046 BKN066 25/16 Q1010 NOSIG
12:30
V
23 °C 10 km+ 4.600 ft 320° 320° 5 kt METAR LFBE 151030Z AUTO 32005KT 260V010 9999 SCT027 SCT033 BKN046 23/17 Q1010 BECMG 20010KT
12:00
M
23 °C 10 km+ 2.600 ft 290° 290° 8 kt METAR LFBE 151000Z AUTO 29008KT 250V330 9999 BKN026 OVC034 23/17 Q1010 TEMPO 4000 -SHRA BKN035TCU
11:30
M
23 °C 10 km+ 2.400 ft 250° 250° 6 kt METAR LFBE 150930Z AUTO 25006KT 190V290 9999 BKN024 BKN030 OVC036 23/17 Q1010 TEMPO 4000 -SHRA BKN035TCU
11:00
M
22 °C 10 km+ 2.100 ft 270° 270° 6 kt METAR LFBE 150900Z AUTO 27006KT 230V310 9999 BKN021 BKN031 BKN040 22/17 Q1010 TEMPO 4000 -SHRA BKN035TCU
10:30
V
22 °C 10 km+ 6.400 ft 250° 250° 6 kt METAR LFBE 150830Z AUTO 25006KT 210V300 9999 FEW017 SCT039 BKN064 22/18 Q1010 TEMPO 4000 -SHRA BKN035TCU
10:00
V
20 °C 10 km+ 5.400 ft 240° 240° 4 kt METAR LFBE 150800Z AUTO 24004KT 170V300 9999 FEW019 OVC054 20/18 Q1010 TEMPO 4000 -SHRA BKN035TCU
09:30
M
19 °C 10 km+ 1.900 ft Var Var 2 kt METAR LFBE 150730Z AUTO VRB02KT 9999 FEW013 BKN019 OVC039 19/17 Q1010 TEMPO 4000 -SHRA BKN035TCU
09:00
M
18 °C 10 km+ 2.300 ft Var Var 2 kt METAR LFBE 150700Z AUTO VRB02KT 9999 SCT013/// BKN023/// BKN039/// //////TCU 18/17 Q1010 TEMPO 4000 -SHRA
08:30
I
18 °C 3,6 km 1.900 ft Var Var 2 kt METAR LFBE 150630Z AUTO VRB02KT 9999 3600 RA BKN019/// OVC033/// //////TCU 18/17 Q1010 TEMPO 4000 -SHRA
08:00
V
18 °C 10 km+ 4.000 ft Var Var 3 kt METAR LFBE 150600Z AUTO VRB03KT 9999 FEW019 BKN040 BKN054 18/17 Q1010 TEMPO 4000 -SHRA BKN035TCU
07:30
M
17 °C 10 km+ 2.200 ft Var Var 2 kt METAR LFBE 150530Z AUTO VRB02KT 9999 BKN022 BKN034 OVC054 17/17 Q1010 TEMPO 4000 -SHRA BKN015TCU
07:00
V
17 °C 10 km+ - Var Var 2 kt METAR LFBE 150500Z AUTO VRB02KT 9999 FEW023 SCT040 17/15 Q1010 TEMPO 4000 -SHRA BKN015TCU
06:30
V
17 °C 10 km+ 5.000 ft Var Var 2 kt METAR LFBE 150430Z AUTO VRB02KT 9999 FEW023 BKN050 BKN110 17/16 Q1010 TEMPO 4000 -SHRA BKN015TCU
06:00
V
18 °C 10 km+ - Var Var 3 kt METAR LFBE 150400Z AUTO VRB03KT CAVOK 18/16 Q1010 TEMPO 4000 -SHRA BKN015TCU
05:30
V
18 °C 10 km+ 5.400 ft Var Var 2 kt METAR LFBE 150330Z AUTO VRB02KT 9999 FEW024 OVC054 18/16 Q1010 TEMPO 4000 -SHRA BKN015TCU
05:00
V
18 °C 10 km+ 3.300 ft Var Var 3 kt METAR LFBE 150300Z AUTO VRB03KT 9999 FEW023 BKN033 BKN049 18/17 Q1010 TEMPO 4000 -SHRA BKN015TCU
04:30
V
17 °C 10 km+ 5.200 ft Var Var 2 kt METAR LFBE 150230Z AUTO VRB02KT 9999 FEW027 SCT046 OVC052 17/16 Q1010 TEMPO 4000 -SHRA BKN015TCU
04:00
V
16 °C 10 km+ 4.900 ft Var Var 2 kt METAR LFBE 150200Z AUTO VRB02KT 9999 SCT027 SCT032 BKN049 16/16 Q1010 TEMPO 4000 -SHRA BKN015TCU
03:30
V
16 °C 10 km+ 4.500 ft Var 000° 0 kt METAR LFBE 150130Z AUTO 00000KT 9999 FEW024 BKN045 16/16 Q1010 TEMPO 4000 -SHRA BKN015TCU BECMG 20010KT
03:00
V
16 °C 10 km+ 4.200 ft 070° 070° 2 kt METAR LFBE 150100Z AUTO 07002KT 9999 BKN042 16/15 Q1010 NOSIG
02:30
V
16 °C 10 km+ - Var Var 2 kt METAR LFBE 150030Z AUTO VRB02KT 9999 FEW023 SCT036 16/15 Q1011 NOSIG
02:00
V
17 °C 10 km+ 4.500 ft 170° 170° 2 kt METAR LFBE 150000Z AUTO 17002KT 9999 FEW025 BKN045 17/16 Q1011 NOSIG
01:30
V
17 °C 10 km+ - Var 000° 0 kt METAR LFBE 142330Z AUTO 00000KT CAVOK 17/15 Q1011 NOSIG
01:00
V
18 °C 10 km+ - 250° 250° 2 kt METAR LFBE 142300Z AUTO 25002KT CAVOK 18/15 Q1011
00:30
V
18 °C 10 km+ - 250° 250° 3 kt METAR LFBE 142230Z AUTO 25003KT CAVOK 18/15 Q1011
00:00
V
18 °C 10 km+ - 250° 250° 4 kt METAR LFBE 142200Z AUTO 25004KT 9999 FEW036 18/15 Q1011

14 de agosto de 2022

Hora Código Clima Temp. Visibilidade Tecto Vento METAR/SPECI
23:30
V
19 °C 10 km+ - 250° 250° 5 kt METAR LFBE 142130Z AUTO 25005KT 9999 FEW039 19/15 Q1011
23:00
V
19 °C 10 km+ - 250° 250° 5 kt METAR LFBE 142100Z AUTO 25005KT 9999 FEW039 19/15 Q1010
22:30
V
19 °C 10 km+ - 250° 250° 3 kt METAR LFBE 142030Z AUTO 25003KT CAVOK 19/15 Q1010
22:00
V
20 °C 10 km+ - 270° 270° 3 kt METAR LFBE 142000Z AUTO 27003KT CAVOK 20/15 Q1010 NOSIG
21:30
V
21 °C 10 km+ - 240° 240° 4 kt METAR LFBE 141930Z AUTO 24004KT CAVOK 21/15 Q1010 NOSIG
21:00
V
23 °C 10 km+ - 250° 250° 7 kt METAR LFBE 141900Z AUTO 25007KT CAVOK 23/15 Q1010 NOSIG
20:30
V
24 °C 10 km+ - 230° 230° 6 kt METAR LFBE 141830Z AUTO 23006KT 200V260 CAVOK 24/17 Q1009 NOSIG
20:00
V
24 °C 10 km+ - 220° 220° 4 kt METAR LFBE 141800Z AUTO 22004KT CAVOK 24/17 Q1010 NOSIG
19:30
V
24 °C 10 km+ - 230° 230° 6 kt METAR LFBE 141730Z AUTO 23006KT 200V260 CAVOK 24/17 Q1010 NOSIG
19:00
V
25 °C 10 km+ 6.800 ft 260° 260° 7 kt METAR LFBE 141700Z AUTO 26007KT 230V290 9999 SCT030 BKN068 25/19 Q1010 NOSIG
18:30
M
24 °C 10 km+ 2.900 ft 230° 230° 10 kt METAR LFBE 141630Z AUTO 23010KT 9999 BKN029 OVC038 24/18 Q1010 NOSIG
18:00
V
24 °C 10 km+ - 230° 230° 8 kt METAR LFBE 141600Z AUTO 23008KT 180V260 9999 FEW023 SCT036 24/19 Q1010 NOSIG
17:30
V
24 °C 10 km+ - 210° 210° 7 kt METAR LFBE 141530Z AUTO 21007KT 180V260 9999 FEW021 24/19 Q1010 NOSIG
17:00
V
23 °C 10 km+ - 180° 180° 6 kt METAR LFBE 141500Z AUTO 18006KT 140V230 9999 //////CB 23/19 Q1010 BECMG NSC
16:30
V
23 °C 10 km+ - 180° 180° 8 kt METAR LFBE 141430Z AUTO 18008KT 140V210 9999 FEW015/// ///CB 23/19 Q1010 BECMG NSC
16:00
V
21 °C 10 km+ 6.200 ft 150° 150° 4 kt METAR LFBE 141400Z AUTO 15004KT 120V180 9999 FEW035/// OVC062/// ///CB 21/19 Q1011 TEMPO 4000 SHRA BECMG NSC
15:30
V
19 °C 10 km+ 3.300 ft 170° 170° 3 kt METAR LFBE 141330Z AUTO 17003KT 140V210 9999 VCTS BKN033/// BKN043/// BKN060/// ///CB 19/18 Q1011 TEMPO 4000 SHRA BECMG NSC
15:00
V
18 °C 10 km+ 3.800 ft 150° 150° 3 kt METAR LFBE 141300Z AUTO 15003KT 100V220 9999 -RA VCTS FEW031/// BKN038/// BKN046/// //////CB 18/16 Q1011 TEMPO 4000 SHRA
Dados mais antigos

Nós e terceiros acompanhamos seu comportamento na internet em nosso site com cookies. Se você continuar, nós assumimos que você concorda com nossa política de cookies. Saiba mais